Flight Track Log - Related Links

Times and Time Zones

All times are in EDT time to prevent confusion due to time zone crossing. See the JIA2329 flight status page for this flight to view local times or setup timezone preferences in your user account.

Time Position Orientation Groundspeed Altitude Reporting Facility
EDT Latitude Longitude Course Direction KTS MPH feet Rate Location/Type
Sat 05:39:10 AM 42.7236 -73.8081 220° Southwest 172 198 1,500  Level Boston Center
Sat 05:40:17 AM 42.6856 -73.8581 224° Southwest 251 289 4,200 2,634 Climbing Boston Center
Sat 05:40:32 AM 42.6872 -73.8806 276° West 252 290 5,100 3,440 Climbing Boston Center
Sat 05:41:00 AM 42.7333 -74.1436 270° West  Level FlightAware Approximate
Sat 05:41:32 AM 42.7006 -73.9797 280° West 258 297 8,500  Level Boston Center
Sat 05:42:00 AM 42.7334 -74.2581 270° West  Level FlightAware Approximate
Sat 05:42:32 AM 42.6764 -74.0753 251° West 263 303 11,400  Level Boston Center
Sat 05:43:00 AM 42.6984 -74.3539 220° Southwest  Level FlightAware Approximate
Sat 05:43:32 AM 42.6250 -74.1586 230° Southwest 284 327 13,700  Level Boston Center
Sat 05:44:00 AM 42.6336 -74.4269 220° Southwest  Level FlightAware Approximate
Sat 05:44:32 AM 42.5628 -74.2725 233° Southwest 330 380 15,600  Level Boston Center
Sat 05:45:32 AM 42.5047 -74.3747 232° Southwest 372 428 16,000 200 Climbing Boston Center
Sat 05:46:32 AM 42.4358 -74.4994 233° Southwest 385 443 16,000  Level Boston Center
Sat 05:47:32 AM 42.3778 -74.6042 233° Southwest 385 443 16,000 -39 Level Boston Center
Sat 05:49:05 AM 42.2781 -74.7814 233° Southwest 390 449 15,900 -39 Descending New York Center
Sat 05:50:05 AM 42.2139 -74.8981 233° Southwest 390 449 15,900  Level New York Center
Sat 05:51:07 AM 42.1333 -74.9964 222° Southwest 390 449 15,900  Level New York Center
Sat 05:52:07 AM 42.0433 -75.0717 212° Southwest 385 443 15,900 50 Level New York Center
Sat 05:53:07 AM 41.9531 -75.1467 212° Southwest 390 449 16,000 50 Climbing New York Center
Sat 05:54:07 AM 41.8544 -75.2264 211° Southwest 390 449 16,000 51 Level New York Center
Sat 05:55:05 AM 41.7600 -75.3006 210° Southwest 396 456 16,100  Climbing New York Center
Sat 05:56:07 AM 41.6697 -75.3722 211° Southwest 396 456 16,000 -400 Descending New York Center
Sat 05:57:05 AM 41.5878 -75.4414 212° Southwest 396 456 15,300 -1,513 Descending New York Center
Sat 05:58:06 AM 41.4933 -75.5153 210° Southwest 396 456 13,000 -1,650 Descending New York Center
Sat 05:59:05 AM 41.4008 -75.5889 211° Southwest 373 429 12,000 -446 Descending New York Center
Sat 06:00:07 AM 41.3167 -75.6575 211° Southwest 373 429 12,100 49 Climbing New York Center
Sat 06:01:08 AM 41.2244 -75.6756 188° South 343 395 12,100  Level New York Center
Sat 06:02:06 AM 41.1297 -75.6467 167° South 338 389 12,100  Level New York Center
Sat 06:03:05 AM 41.0456 -75.6186 166° South 348 400 12,100  Level New York Center
Sat 06:04:07 AM 40.9406 -75.5864 167° South 353 406 12,100 -98 Level New York Center
Sat 06:05:07 AM 40.8439 -75.5550 166° South 353 406 11,900 -400 Descending New York Center
Sat 06:06:07 AM 40.7514 -75.5264 167° South 353 406 11,300 -605 Descending New York Center
Sat 06:07:06 AM 40.6608 -75.4983 167° South 342 394 10,700 -559 Descending New York Center
Sat 06:08:05 AM 40.5722 -75.4703 166° South 333 383 10,200 -353 Descending New York Center
Sat 06:09:05 AM 40.4878 -75.4456 167° South 327 376 10,000 -100 Descending New York Center
Sat 06:10:05 AM 40.4178 -75.4244 167° South 304 350 10,000 -148 Level New York Center
Sat 06:11:07 AM 40.3369 -75.4108 173° South 296 341 9,700 -492 Descending New York Center
Sat 06:12:07 AM 40.2472 -75.4131 181° South 291 335 9,000 -610 Descending New York Center
Sat 06:13:05 AM 40.1761 -75.4192 184° South 291 335 8,500 -555 Descending New York Center
Sat 06:14:06 AM 40.0969 -75.4219 182° South 275 316 7,900 -541 Descending New York Center
Sat 06:15:07 AM 40.0381 -75.4314 187° South 251 289 7,400 -595 Descending New York Center
Sat 06:16:07 AM 39.9819 -75.4819 215° Southwest 231 266 6,700 -712 Descending New York Center
Sat 06:17:05 AM 39.9464 -75.5392 231° Southwest 226 260 6,000 -712 Descending New York Center
Sat 06:18:05 AM 39.8958 -75.6006 223° Southwest 226 260 5,300 -893 Descending New York Center
Sat 06:19:06 AM 39.8481 -75.5972 177° South 199 229 4,200 -1,116 Descending New York Center
Sat 06:19:31 AM 39.8167 -75.5833 161° South 189 217 3,700 -759 Descending Philadelphia TRACON
Sat 06:20:25 AM 39.8167 -75.5167 90° East 165 190 3,200 -316 Descending Philadelphia TRACON
Sat 06:21:25 AM 39.8167 -75.4667 90° East 146 168 3,100 -429 Descending Philadelphia TRACON
Sat 06:22:31 AM 39.8333 -75.4167 67° East 140 161 2,300 -661 Descending Philadelphia TRACON
Sat 06:23:32 AM 39.8500 -75.3667 67° East 118 136 1,700 -590 Descending Philadelphia TRACON

Login

Don't have an account? Register now (free) for customized features, flight alerts, and more!